CIET2: Wichita River Nr Charlie, TX

Data processed at Sat Mar 10 2018 23:57


All information presented herein is the property of the government of the United States of America and may be revised or deleted at any time without prior notice.
Dissemination of this information without the expressed written consent of the Public Affairs Office, Tulsa District U.S. Army Corps of Engineers is strictly prohibited.
These data are gathered electronically and, as presented, have not undergone any form of quality control. These data are not guaranteed to be valid or correct.
Go to home page.
Go to station list.

Upstream stations:

Downstream station:
Previous Day
Next Day
Current Day
    
SHEF ID:       CHWT2     Wichita River nr Charlie, TX
STATION TYPE:  

               PRECIP     STAGE  RIV-FLOW  WTR-TEMP   CONDUCT  BAT-LOAD
                   in        ft       cfs         F   umho/cm      volt
              Ccp-Rev   Ccp-Rev   Ccp-Rev   Ccp-Rev   Ccp-Rev   Ccp-Rev
(US/Central)
03/08 00:00      0.00      4.72        36     55.29      4570     12.65
03/08 01:00      0.00      4.71        34     55.06      4578     12.65
03/08 02:00      0.00      4.71        34     54.81      4586     12.60
03/08 03:00      0.00      4.71        34     54.45      4589     12.60
03/08 04:00      0.00      4.71        34     54.07      4599     12.54
03/08 05:00      0.00      4.72        36     53.62      4610     12.54
03/08 06:00      0.00      4.72        36     53.17      4631     12.48
03/08 07:00      0.00      4.71        34     52.77      4654     12.48
03/08 08:00      0.00      4.72        36     52.48      4680     12.89
03/08 09:00      0.00      4.71        34     52.38      4705     14.06
03/08 10:00      0.00      4.71        34     52.57      4720     14.88
03/08 11:00      0.00      4.71        34     53.24      4724     14.65
03/08 12:00      0.00      4.71        34     53.78      4711     14.53
03/08 13:00      0.00      4.71        34     54.32      4677     14.59
03/08 14:00      0.00      4.72        36     54.81      4618     14.41
03/08 15:00      0.00      4.72        36     55.44      4563     14.47
03/08 16:00      0.00      4.72        36     55.65      4502     14.06
03/08 17:00      0.00      4.72        36     55.78      4415     13.88
03/08 18:00      0.00      4.72        36     55.80      4331     13.53
03/08 19:00      0.00      4.72        36     55.71      4277     12.95
03/08 20:00      0.00      4.72        36     55.58      4213     12.77
03/08 21:00      0.00      4.71        34     55.45      4162     12.71
03/08 22:00      0.00      4.72        36     55.36      4130     12.71
03/08 23:00      0.00      4.73        37     55.29      4087     12.71